Time;durP1;ratioP1;P1;durP2;ratioP2;P2;SDS_P1;SDS_P2;PMS_P1;PMS_P2;Temp;Humidity;BMP_temperature;BMP_pressure;BME280_temperature;BME280_humidity;BME280_pressure;Samples;Min_cycle;Max_cycle;Signal;HPM_P1;HPM_P2
2023/02/12 00:01:36;;;;;;;37.38;9.90;;;;;;;5.57;100.00;102909.78;5014805;28;20045;-85
2023/02/12 00:04:02;;;;;;;20.83;9.00;;;;;;;5.59;100.00;102910.53;4999061;28;20105;-85
2023/02/12 00:06:27;;;;;;;28.67;9.13;;;;;;;5.48;100.00;102908.44;4998965;28;20451;-86
2023/02/12 00:08:55;;;;;;;22.60;8.07;;;;;;;5.52;100.00;102914.41;4998574;28;20053;-85
2023/02/12 00:11:25;;;;;;;20.70;8.23;;;;;;;5.45;100.00;102916.50;4999037;28;20335;-85
2023/02/12 00:13:51;;;;;;;24.45;7.85;;;;;;;5.44;100.00;102946.59;5015116;28;20033;-85
2023/02/12 00:16:19;;;;;;;21.92;8.10;;;;;;;5.45;100.00;102953.59;5014228;28;20104;-85
2023/02/12 00:18:45;;;;;;;20.55;8.55;;;;;;;5.43;100.00;102947.56;4996812;28;20026;-85
2023/02/12 00:21:12;;;;;;;22.52;8.00;;;;;;;5.47;100.00;102945.59;4994551;28;20039;-85
2023/02/12 00:23:39;;;;;;;16.33;6.47;;;;;;;5.44;100.00;102946.59;4998286;28;20040;-85
2023/02/12 00:26:11;;;;;;;22.40;7.95;;;;;;;5.42;100.00;102953.75;5014729;28;20246;-85
2023/02/12 00:28:41;;;;;;;;;;;;;;;5.43;100.00;102947.56;5014788;28;20060;-85
2023/02/12 00:31:09;;;;;;;24.10;7.15;;;;;;;5.46;100.00;102947.38;5014131;28;20286;-85
2023/02/12 00:33:34;;;;;;;17.95;7.18;;;;;;;5.41;100.00;102933.50;5014363;28;20180;-85
2023/02/12 00:36:00;;;;;;;20.63;6.70;;;;;;;5.38;100.00;102935.44;5015592;28;20108;-85
2023/02/12 00:38:26;;;;;;;16.42;7.25;;;;;;;5.45;100.00;102939.50;4999331;28;20029;-86
2023/02/12 00:40:51;;;;;;;33.78;7.90;;;;;;;5.39;100.00;102945.97;4998420;28;20112;-86
2023/02/12 00:43:16;;;;;;;15.37;6.60;;;;;;;5.42;100.00;102945.81;5015162;28;20029;-85
2023/02/12 00:45:44;;;;;;;18.67;6.70;;;;;;;5.41;100.00;102941.47;5031780;28;20268;-85
2023/02/12 00:48:09;;;;;;;24.80;8.30;;;;;;;5.44;100.00;102954.56;5011853;28;20041;-85
2023/02/12 00:50:35;;;;;;;27.73;8.57;;;;;;;5.37;100.00;102947.84;4996805;28;20087;-85
2023/02/12 00:53:00;;;;;;;20.33;7.10;;;;;;;5.36;100.00;102946.13;5013962;28;20044;-86
2023/02/12 00:55:25;;;;;;;21.93;6.23;;;;;;;5.36;100.00;102940.84;4998765;28;20135;-85
2023/02/12 00:57:51;;;;;;;15.83;5.93;;;;;;;5.38;100.00;102943.38;4997353;28;20032;-85
2023/02/12 01:00:16;;;;;;;19.53;7.37;;;;;;;5.42;100.00;102951.13;4993918;28;20121;-85
2023/02/12 01:02:42;;;;;;;15.00;6.40;;;;;;;5.43;100.00;102958.16;5011500;28;20053;-85
2023/02/12 01:05:07;;;;;;;13.73;6.57;;;;;;;5.45;100.00;102958.91;5013915;28;20037;-85
2023/02/12 01:07:32;;;;;;;21.13;7.22;;;;;;;5.36;100.00;102940.84;5014095;28;20029;-85
2023/02/12 01:09:58;;;;;;;19.17;6.10;;;;;;;5.45;100.00;102958.06;4994762;28;20034;-85
2023/02/12 01:12:23;;;;;;;13.48;4.88;;;;;;;5.41;100.00;102959.16;5009572;28;20033;-85
2023/02/12 01:14:49;;;;;;;17.90;6.67;;;;;;;5.36;100.00;102953.19;5013461;28;20037;-85
2023/02/12 01:17:14;;;;;;;17.27;5.93;;;;;;;5.38;100.00;102964.59;4996470;28;20415;-85
2023/02/12 01:19:43;;;;;;;14.38;5.85;;;;;;;5.45;100.00;102966.00;5013876;28;20035;-86
2023/02/12 01:22:08;;;;;;;15.27;5.93;;;;;;;5.48;100.00;102969.38;5013912;28;20100;-85
2023/02/12 01:24:34;;;;;;;12.53;5.70;;;;;;;5.40;100.00;102968.88;5014853;28;20092;-85
2023/02/12 01:27:00;;;;;;;22.90;6.25;;;;;;;5.40;100.00;102968.03;5014139;28;20041;-85
2023/02/12 01:29:27;;;;;;;15.93;6.20;;;;;;;5.40;100.00;102963.56;5014698;28;20040;-85
2023/02/12 01:31:52;;;;;;;13.95;6.25;;;;;;;5.48;100.00;102972.03;5006692;28;20021;-85
2023/02/12 01:34:18;;;;;;;16.27;6.70;;;;;;;5.36;100.00;102967.31;5014194;28;20080;-85
2023/02/12 01:36:43;;;;;;;24.87;7.97;;;;;;;5.34;100.00;102968.31;5013691;28;20040;-85
2023/02/12 01:39:10;;;;;;;13.75;6.22;;;;;;;5.41;100.00;102975.91;5014233;28;20345;-85
2023/02/12 01:41:40;;;;;;;19.83;7.40;;;;;;;5.36;100.00;102969.09;5031195;28;20494;-85
2023/02/12 01:44:14;;;;;;;21.20;8.18;;;;;;;5.41;100.00;102967.09;5031718;28;20044;-85
2023/02/12 01:46:41;;;;;;;19.38;7.72;;;;;;;5.43;100.00;102968.75;4997352;28;20045;-85
2023/02/12 01:49:13;;;;;;;17.23;6.85;;;;;;;5.43;100.00;102968.75;5014686;28;20025;-85
2023/02/12 01:51:40;;;;;;;22.85;7.78;;;;;;;5.39;100.00;102969.81;5014193;28;20061;-85
2023/02/12 01:54:09;;;;;;;19.15;8.02;;;;;;;5.39;100.00;102969.81;5013604;28;20414;-86
2023/02/12 01:56:35;;;;;;;26.38;8.15;;;;;;;5.32;100.00;102965.75;5012672;28;20037;-85
2023/02/12 01:59:01;;;;;;;17.63;7.53;;;;;;;5.32;100.00;102955.16;5012757;28;20033;-85
2023/02/12 02:01:32;;;;;;;19.40;7.72;;;;;;;5.41;100.00;102967.09;5013019;28;20041;-85
2023/02/12 02:04:03;;;;;;;24.05;7.15;;;;;;;5.39;100.00;102961.88;5013459;28;20057;-85
2023/02/12 02:06:33;;;;;;;23.55;7.47;;;;;;;5.42;100.00;102967.00;5012840;28;20513;-85
2023/02/12 02:09:00;;;;;;;18.77;7.40;;;;;;;5.39;100.00;102955.72;5005053;28;20041;-84
2023/02/12 02:17:11;;;;;;;15.48;5.85;;;;;;;5.40;100.00;102963.56;5030946;28;20032;-85
2023/02/12 02:19:46;;;;;;;12.70;5.00;;;;;;;5.40;100.00;102966.22;4995222;28;20034;-85
2023/02/12 02:22:17;;;;;;;15.68;6.20;;;;;;;5.37;100.00;102958.44;5023189;28;20277;-85
2023/02/12 02:25:16;;;;;;;16.98;6.47;;;;;;;5.43;100.00;102960.78;5014623;28;20029;-85
2023/02/12 02:28:11;;;;;;;19.77;7.07;;;;;;;5.39;100.00;102945.97;5012678;28;20057;-85
2023/02/12 02:30:45;;;;;;;18.83;6.03;;;;;;;5.39;100.00;102956.56;5030328;28;20722;-85
2023/02/12 02:33:28;;;;;;;23.80;7.00;;;;;;;5.35;100.00;102962.94;5012605;28;20155;-85
2023/02/12 02:36:22;;;;;;;17.42;6.30;;;;;;;5.39;100.00;102967.16;5012356;28;20410;-85
2023/02/12 02:39:06;;;;;;;18.20;6.22;;;;;;;5.38;100.00;102957.47;5012491;28;20063;-85
2023/02/12 02:41:47;;;;;;;16.35;6.20;;;;;;;5.43;100.00;102952.84;5012535;28;20128;-85
2023/02/12 02:44:18;;;;;;;16.90;6.03;;;;;;;5.42;100.00;102956.41;4997101;28;20617;-85
2023/02/12 02:46:49;;;;;;;16.20;6.55;;;;;;;5.38;100.00;102953.97;5012779;28;20065;-85
2023/02/12 02:49:21;;;;;;;10.73;5.15;;;;;;;5.44;100.00;102951.91;5012853;28;20103;-86
2023/02/12 02:51:52;;;;;;;17.23;6.28;;;;;;;5.41;100.00;102949.41;4996304;28;20107;-85
2023/02/12 02:54:20;;;;;;;11.75;4.85;;;;;;;5.48;100.00;102956.13;5013561;28;20033;-85
2023/02/12 02:56:49;;;;;;;16.25;5.80;;;;;;;5.47;100.00;102959.69;5013942;28;20112;-86
2023/02/12 02:59:27;;;;;;;15.18;5.10;;;;;;;5.46;100.00;102952.69;5013145;28;20106;-84
2023/02/12 03:01:59;;;;;;;12.75;5.95;;;;;;;5.53;100.00;102960.34;5013490;28;20040;-85
2023/02/12 03:04:37;;;;;;;13.18;5.22;;;;;;;5.59;100.00;102958.22;5013607;28;20048;-85
2023/02/12 03:07:09;;;;;;;19.45;5.70;;;;;;;5.54;100.00;102956.75;4990637;28;20041;-85
2023/02/12 03:09:43;;;;;;;14.93;6.45;;;;;;;5.47;100.00;102954.38;4997091;28;20038;-85
2023/02/12 03:12:22;;;;;;;16.08;5.25;;;;;;;5.44;100.00;102954.56;5013589;28;20087;-85
2023/02/12 03:15:02;;;;;;;17.50;5.40;;;;;;;5.44;100.00;102951.06;5017239;28;20104;-85
2023/02/12 03:17:32;;;;;;;19.80;6.28;;;;;;;5.48;100.00;102956.13;5034456;28;20552;-85
2023/02/12 03:20:04;;;;;;;17.50;5.95;;;;;;;5.44;100.00;102954.56;4991789;28;20029;-85
2023/02/12 03:22:35;;;;;;;15.88;5.45;;;;;;;5.54;100.00;102964.69;5015224;28;20371;-85
2023/02/12 03:25:13;;;;;;;19.83;6.32;;;;;;;5.43;100.00;102963.44;5015481;28;20048;-85
2023/02/12 03:27:40;;;;;;;23.92;5.53;;;;;;;5.42;100.00;102956.41;5015903;28;20145;-85
2023/02/12 03:30:07;;;;;;;18.45;5.47;;;;;;;5.45;100.00;102956.25;4998941;28;20017;-85
2023/02/12 03:32:56;;;;;;;15.90;6.40;;;;;;;5.44;100.00;102954.56;4998903;28;20045;-85
2023/02/12 03:35:29;;;;;;;11.25;4.47;;;;;;;5.48;100.00;102965.88;4979867;28;20058;-85
2023/02/12 03:38:08;;;;;;;13.63;5.25;;;;;;;5.50;100.00;102970.16;5015501;28;20402;-85
2023/02/12 03:40:39;;;;;;;26.23;7.57;;;;;;;5.49;100.00;102968.44;5014933;28;20065;-85
2023/02/12 03:43:21;;;;;;;20.85;5.82;;;;;;;5.51;100.00;102976.31;5015354;28;20034;-85
2023/02/12 03:45:57;;;;;;;24.10;6.95;;;;;;;5.47;100.00;102966.78;5028361;28;20467;-86
2023/02/12 03:48:40;;;;;;;13.07;5.53;;;;;;;5.53;100.00;102970.94;5015131;28;20478;-85
2023/02/12 03:51:25;;;;;;;15.05;4.80;;;;;;;5.46;100.00;102971.22;4998458;28;20041;-85
2023/02/12 03:53:51;;;;;;;15.75;5.35;;;;;;;5.47;100.00;102980.03;5015371;28;20043;-85
2023/02/12 03:56:23;;;;;;;18.80;5.65;;;;;;;5.50;100.00;102978.09;4998779;28;20108;-86
2023/02/12 03:58:48;;;;;;;16.17;6.25;;;;;;;5.43;100.00;102983.75;5014732;28;20033;-85
2023/02/12 04:01:14;;;;;;;17.80;5.63;;;;;;;5.38;100.00;102985.78;5014704;28;20409;-85
2023/02/12 04:03:49;;;;;;;20.65;5.70;;;;;;;5.48;100.00;102987.91;5014906;28;20091;-85
2023/02/12 04:06:20;;;;;;;19.00;5.78;;;;;;;5.47;100.00;102988.84;5015227;28;20048;-86
2023/02/12 04:08:46;;;;;;;16.30;5.38;;;;;;;5.48;100.00;102987.91;5032408;28;20033;-86
2023/02/12 04:11:29;;;;;;;21.05;6.18;;;;;;;5.43;100.00;102984.63;5014875;28;20036;-86
2023/02/12 04:14:31;;;;;;;19.30;4.78;;;;;;;5.38;100.00;102980.47;4998001;28;20068;-86
2023/02/12 04:17:08;;;;;;;16.45;6.00;;;;;;;5.42;100.00;102980.25;5014173;28;20664;-86
2023/02/12 04:19:40;;;;;;;16.20;4.97;;;;;;;5.43;100.00;102989.94;5014166;28;20049;-86
2023/02/12 04:22:47;;;;;;;15.40;4.82;;;;;;;5.40;100.00;102990.06;5014359;28;20713;-86
2023/02/12 04:25:36;;;;;;;31.33;6.22;;;;;;;5.36;100.00;102988.53;5020914;28;20033;-86
2023/02/12 04:28:07;;;;;;;20.88;5.70;;;;;;;5.36;100.00;102988.53;4990872;28;20042;-86
2023/02/12 04:30:40;;;;;;;14.13;5.68;;;;;;;5.32;100.00;102988.75;4997922;28;20047;-86
2023/02/12 04:33:10;;;;;;;25.17;4.78;;;;;;;5.42;100.00;102988.19;5014429;28;20041;-86
2023/02/12 04:35:42;;;;;;;23.02;5.93;;;;;;;5.38;100.00;102997.22;5013853;28;20033;-86
2023/02/12 04:38:21;;;;;;;26.40;7.05;;;;;;;5.39;100.00;103001.59;5027109;28;20033;-86
2023/02/12 04:40:47;;;;;;;17.60;5.70;;;;;;;5.39;100.00;103006.06;5017724;28;20045;-86
2023/02/12 04:43:13;;;;;;;16.63;5.95;;;;;;;5.42;100.00;103001.44;4997692;28;20026;-86
2023/02/12 04:45:38;;;;;;;21.83;6.18;;;;;;;5.39;100.00;103001.59;5011811;28;20037;-86
2023/02/12 04:48:05;;;;;;;23.40;5.27;;;;;;;5.40;100.00;103000.66;4998226;28;20037;-86
2023/02/12 04:50:40;;;;;;;30.15;5.70;;;;;;;5.40;100.00;103000.66;5031455;28;20822;-86
2023/02/12 04:53:05;;;;;;;18.25;5.20;;;;;;;5.39;100.00;103008.69;5007699;28;20401;-86
2023/02/12 04:55:30;;;;;;;30.05;6.97;;;;;;;5.40;100.00;103011.25;5014292;28;20033;-86
2023/02/12 04:57:56;;;;;;;29.60;6.73;;;;;;;5.40;100.00;103005.97;5022777;28;20498;-86
2023/02/12 05:00:21;;;;;;;44.83;8.10;;;;;;;5.44;100.00;103010.19;5013677;28;20034;-86
2023/02/12 05:02:47;;;;;;;29.40;6.97;;;;;;;5.38;100.00;103005.16;5031387;28;20095;-86
2023/02/12 05:05:12;;;;;;;22.97;6.47;;;;;;;5.43;100.00;103013.78;5013702;28;20045;-86
2023/02/12 05:07:37;;;;;;;26.47;7.13;;;;;;;5.44;100.00;103023.44;5013562;28;20264;-86
2023/02/12 05:10:03;;;;;;;22.63;6.73;;;;;;;5.50;100.00;103014.31;4997312;28;20084;-86
2023/02/12 05:12:28;;;;;;;18.63;6.00;;;;;;;5.50;100.00;103031.09;5013345;28;20053;-86
2023/02/12 05:14:54;;;;;;;26.50;6.80;;;;;;;5.46;100.00;103018.06;5013184;28;20802;-86
2023/02/12 05:17:21;;;;;;;28.30;6.33;;;;;;;5.44;100.00;103015.47;5013286;28;20037;-86
2023/02/12 05:19:47;;;;;;;27.13;8.45;;;;;;;5.44;100.00;103011.97;4996829;28;20021;-86
2023/02/12 05:22:12;;;;;;;23.93;6.27;;;;;;;5.43;100.00;103011.13;5012985;28;20049;-86
2023/02/12 05:24:37;;;;;;;20.23;5.60;;;;;;;5.39;100.00;102998.97;5013040;28;20026;-86
2023/02/12 05:27:03;;;;;;;41.17;8.63;;;;;;;5.44;100.00;103012.84;5030827;28;20490;-86
2023/02/12 05:32:03;;;;;;;37.67;8.23;;;;;;;5.44;100.00;103012.84;4992964;28;20491;-74
2023/02/12 05:34:29;;;;;;;25.25;7.32;;;;;;;5.44;100.00;103011.97;4959494;28;20023;-74
2023/02/12 05:36:54;;;;;;;26.00;7.05;;;;;;;5.46;100.00;103021.56;4960427;28;20039;-74
2023/02/12 05:39:20;;;;;;;24.37;6.13;;;;;;;5.43;100.00;103015.56;4961751;28;20039;-75
2023/02/12 05:41:45;;;;;;;28.02;6.18;;;;;;;5.38;100.00;103007.81;4978652;23;20049;-75
2023/02/12 05:44:11;;;;;;;31.53;6.67;;;;;;;5.39;100.00;103012.19;5003532;28;20022;-72
2023/02/12 05:46:37;;;;;;;26.85;6.60;;;;;;;5.38;100.00;103013.13;5000263;28;20076;-71
2023/02/12 05:49:02;;;;;;;28.88;6.80;;;;;;;5.33;100.00;103011.63;5022429;28;20064;-72
2023/02/12 05:51:30;;;;;;;22.83;6.35;;;;;;;5.32;100.00;103007.28;5018517;28;20059;-73
2023/02/12 05:53:59;;;;;;;23.90;7.18;;;;;;;5.34;100.00;103014.22;5015649;28;20461;-72
2023/02/12 05:56:29;;;;;;;27.15;6.50;;;;;;;5.33;100.00;103015.13;5019264;28;20017;-72
2023/02/12 05:59:02;;;;;;;29.90;7.55;;;;;;;5.30;100.00;103015.28;4986758;28;20574;-71
2023/02/12 06:01:39;;;;;;;32.60;7.90;;;;;;;5.32;100.00;103012.56;5000627;28;20508;-72
2023/02/12 06:04:07;;;;;;;22.92;7.25;;;;;;;5.28;100.00;103017.16;5015429;28;20029;-72
2023/02/12 06:06:33;;;;;;;30.42;6.05;;;;;;;5.31;100.00;103018.78;5018631;28;20195;-72
2023/02/12 06:08:59;;;;;;;;;;;;;;;5.29;100.00;103021.50;5020506;28;20482;-72
2023/02/12 06:11:24;;;;;;;29.83;6.50;;;;;;;5.24;100.00;103021.75;5002957;28;19916;-73
2023/02/12 06:13:50;;;;;;;31.65;6.25;;;;;;;5.25;100.00;103028.75;4987356;28;20618;-71
2023/02/12 06:16:24;;;;;;;21.92;6.38;;;;;;;5.25;100.00;103033.19;5020005;28;20125;-72
2023/02/12 06:18:50;;;;;;;26.80;5.88;;;;;;;5.28;100.00;103040.97;5017672;28;20044;-71
2023/02/12 06:21:17;;;;;;;36.78;8.32;;;;;;;5.28;100.00;103035.69;5020223;28;20041;-73
2023/02/12 06:23:42;;;;;;;35.83;8.13;;;;;;;5.24;100.00;103029.69;5017474;28;20029;-71
2023/02/12 06:26:07;;;;;;;20.67;5.73;;;;;;;5.28;100.00;103033.03;5019803;28;20056;-71
2023/02/12 06:28:33;;;;;;;29.58;7.78;;;;;;;5.28;100.00;103038.34;5000161;28;20038;-72
2023/02/12 06:30:58;;;;;;;25.90;7.63;;;;;;;5.29;100.00;103040.91;5019399;28;20049;-71
2023/02/12 06:33:24;;;;;;;43.67;9.87;;;;;;;5.29;100.00;103043.56;4996422;28;20038;-71
2023/02/12 06:35:49;;;;;;;45.43;11.33;;;;;;;5.31;100.00;103045.28;5018882;28;20281;-73
2023/02/12 06:38:14;;;;;;;32.67;9.67;;;;;;;5.33;100.00;103048.72;5002248;28;20468;-71
2023/02/12 06:40:40;;;;;;;44.83;9.33;;;;;;;5.30;100.00;103052.38;5016675;28;20653;-73
2023/02/12 06:43:05;;;;;;;53.83;12.13;;;;;;;5.38;100.00;103060.81;5019317;28;20518;-73
2023/02/12 06:45:32;;;;;;;34.23;9.17;;;;;;;5.35;100.00;103060.09;5019645;28;20558;-74
2023/02/12 06:47:57;;;;;;;30.10;9.60;;;;;;;5.39;100.00;103061.69;5019393;28;20057;-74
2023/02/12 06:50:23;;;;;;;44.93;12.50;;;;;;;5.33;100.00;103062.81;5001184;28;20053;-71
2023/02/12 06:52:48;;;;;;;50.60;11.48;;;;;;;5.32;100.00;103073.50;5010961;28;20041;-71
2023/02/12 06:55:14;;;;;;;40.60;10.00;;;;;;;5.33;100.00;103069.91;5027149;28;20112;-73
2023/02/12 06:57:39;;;;;;;67.53;12.27;;;;;;;5.36;100.00;103072.41;5013139;28;20037;-71
2023/02/12 07:00:05;;;;;;;57.00;12.80;;;;;;;5.36;100.00;103073.28;5009370;28;20261;-72
2023/02/12 07:02:30;;;;;;;62.40;15.02;;;;;;;5.35;100.00;103081.28;4992904;28;20044;-74
2023/02/12 07:04:56;;;;;;;73.50;15.33;;;;;;;5.40;100.00;103080.13;5008884;28;20534;-74
2023/02/12 07:07:21;;;;;;;65.23;16.57;;;;;;;5.44;100.00;103084.38;4991853;28;20056;-72
2023/02/12 07:09:46;;;;;;;62.83;19.93;;;;;;;5.44;100.00;103089.66;5021820;28;20092;-72
2023/02/12 07:12:12;;;;;;;59.93;15.60;;;;;;;5.41;100.00;103089.81;5016397;28;20041;-73
2023/02/12 07:14:37;;;;;;;108.43;23.93;;;;;;;5.40;100.00;103090.72;5002963;28;20095;-71
2023/02/12 07:17:04;;;;;;;75.80;19.92;;;;;;;5.40;100.00;103090.72;5021088;28;20041;-72
2023/02/12 07:19:29;;;;;;;81.10;23.33;;;;;;;5.41;100.00;103092.47;5020599;28;20033;-71
2023/02/12 07:21:55;;;;;;;94.03;23.52;;;;;;;5.44;100.00;103097.63;5022132;28;20376;-74
2023/02/12 07:24:21;;;;;;;124.72;28.48;;;;;;;5.44;100.00;103091.47;4988820;28;20068;-74
2023/02/12 07:26:46;;;;;;;94.63;24.73;;;;;;;5.47;100.00;103092.16;5004620;28;20097;-72
2023/02/12 07:29:12;;;;;;;106.15;25.83;;;;;;;5.46;100.00;103101.06;5023046;28;20033;-71
2023/02/12 07:31:37;;;;;;;101.90;28.75;;;;;;;5.53;100.00;103106.09;5020294;28;20029;-72
2023/02/12 07:34:03;;;;;;;104.00;26.03;;;;;;;5.56;100.00;103109.44;5022813;28;20440;-72
2023/02/12 07:36:31;;;;;;;85.90;26.13;;;;;;;5.55;100.00;103114.78;5021717;28;20029;-72
2023/02/12 07:38:58;;;;;;;124.30;29.55;;;;;;;5.58;100.00;103119.97;5017555;28;20116;-74
2023/02/12 07:41:29;;;;;;;110.50;29.88;;;;;;;5.61;100.00;103115.38;5021570;28;20052;-72
2023/02/12 07:43:57;;;;;;;98.47;27.20;;;;;;;5.64;100.00;103124.97;5021907;28;20075;-71
2023/02/12 07:46:28;;;;;;;93.72;24.60;;;;;;;5.65;100.00;103127.56;5020917;28;20034;-72
2023/02/12 07:48:55;;;;;;;99.95;28.55;;;;;;;5.63;100.00;103133.84;5005223;28;20087;-72
2023/02/12 07:51:21;;;;;;;92.78;26.17;;;;;;;5.62;100.00;103135.66;5004253;28;20029;-72
2023/02/12 07:53:47;;;;;;;85.57;26.40;;;;;;;5.66;100.00;103139.00;4991211;28;20383;-72
2023/02/12 07:56:22;;;;;;;78.38;24.65;;;;;;;5.66;100.00;103142.50;5004514;28;20037;-73
2023/02/12 07:58:49;;;;;;;89.15;26.00;;;;;;;5.68;100.00;103140.66;4986933;28;20513;-73
2023/02/12 08:01:20;;;;;;;92.47;28.77;;;;;;;5.70;100.00;103145.88;5006682;28;20029;-72
2023/02/12 08:03:47;;;;;;;80.95;25.77;;;;;;;5.70;100.00;103145.88;5024129;28;20080;-74
2023/02/12 08:06:26;;;;;;;89.18;25.63;;;;;;;5.82;100.00;103155.91;5012004;28;20046;-72
2023/02/12 08:08:53;;;;;;;94.15;25.95;;;;;;;5.79;100.00;103148.09;5009598;28;20044;-72
2023/02/12 08:11:19;;;;;;;83.60;22.85;;;;;;;5.85;100.00;103155.78;5010365;28;20121;-72
2023/02/12 08:13:45;;;;;;;100.03;25.33;;;;;;;5.78;100.00;103151.69;5007216;28;20026;-75
2023/02/12 08:16:13;;;;;;;85.23;23.07;;;;;;;5.85;100.00;103162.84;4990020;28;20056;-75
2023/02/12 08:18:39;;;;;;;80.75;21.75;;;;;;;5.83;100.00;103165.59;4989895;28;20037;-73
2023/02/12 08:21:05;;;;;;;81.95;20.73;;;;;;;5.79;100.00;103156.06;5021705;28;20501;-72
2023/02/12 08:23:31;;;;;;;77.68;20.85;;;;;;;5.89;100.00;103162.63;5007667;28;20406;-74
2023/02/12 08:26:10;;;;;;;68.18;19.30;;;;;;;5.91;100.00;103160.78;4989863;28;20395;-72
2023/02/12 08:28:37;;;;;;;78.93;21.08;;;;;;;5.90;100.00;103163.53;5006172;28;20482;-72
2023/02/12 08:31:06;;;;;;;71.60;18.08;;;;;;;5.91;100.00;103150.16;5006833;28;20036;-72
2023/02/12 08:33:31;;;;;;;77.25;19.20;;;;;;;5.99;100.00;103156.94;5006327;28;20042;-72
2023/02/12 08:36:03;;;;;;;62.43;19.13;;;;;;;6.01;100.00;103152.41;5008547;28;20040;-72
2023/02/12 08:38:29;;;;;;;57.65;18.88;;;;;;;6.11;100.00;103156.31;5005972;28;20041;-72
2023/02/12 08:40:55;;;;;;;65.78;20.63;;;;;;;6.20;100.00;103155.88;4989065;28;20018;-72
2023/02/12 08:43:20;;;;;;;65.78;18.08;;;;;;;6.20;100.00;103155.88;4987392;28;20060;-72
2023/02/12 08:45:45;;;;;;;50.47;15.93;;;;;;;6.20;100.00;103145.28;4990525;28;20030;-74
2023/02/12 08:48:11;;;;;;;55.97;17.57;;;;;;;6.25;100.00;103153.00;5007044;28;20486;-73
2023/02/12 08:50:37;;;;;;;59.23;17.87;;;;;;;6.36;100.00;103155.13;5004225;28;20372;-75
2023/02/12 08:53:03;;;;;;;53.33;17.55;;;;;;;6.54;100.00;103156.88;4959277;28;20037;-72
2023/02/12 08:55:28;;;;;;;57.83;17.65;;;;;;;6.44;100.00;103150.28;5017212;28;20045;-72
2023/02/12 08:57:56;;;;;;;50.50;17.47;;;;;;;6.43;100.00;103152.09;4987366;28;20104;-73
2023/02/12 09:00:22;;;;;;;53.80;19.23;;;;;;;6.66;100.00;103158.91;4990473;28;20041;-73
2023/02/12 09:02:48;;;;;;;51.08;15.82;;;;;;;6.94;100.00;103163.66;4989091;28;20061;-74
2023/02/12 09:05:13;;;;;;;45.58;15.65;;;;;;;6.85;100.00;103164.13;5009015;28;20045;-72
2023/02/12 09:07:38;;;;;;;45.63;16.10;;;;;;;6.83;100.00;103151.88;5006563;28;20087;-71
2023/02/12 09:10:04;;;;;;;52.77;18.93;;;;;;;6.87;100.00;103153.44;4988692;28;20394;-72
2023/02/12 09:12:30;;;;;;;50.20;19.17;;;;;;;6.89;100.00;103152.41;5003900;28;20042;-72
2023/02/12 09:14:55;;;;;;;46.83;15.40;;;;;;;6.90;100.00;103145.31;5002343;28;20042;-71
2023/02/12 09:17:26;;;;;;;51.45;16.80;;;;;;;6.98;100.00;103148.44;5020278;28;20605;-75
2023/02/12 09:19:52;;;;;;;50.13;16.52;;;;;;;6.99;100.00;103150.13;5017945;28;20088;-72
2023/02/12 09:22:17;;;;;;;49.58;18.33;;;;;;;6.97;100.00;103152.00;5020405;28;20033;-73
2023/02/12 09:24:43;;;;;;;48.27;17.80;;;;;;;7.01;100.00;103152.72;5000420;28;20052;-73
2023/02/12 09:27:08;;;;;;;48.17;15.53;;;;;;;7.04;100.00;103158.72;5019915;28;20060;-73
2023/02/12 09:29:33;;;;;;;48.43;14.70;;;;;;;7.05;100.00;103157.78;5018109;28;20040;-71
2023/02/12 09:32:01;;;;;;;51.47;17.23;;;;;;;7.01;100.00;103147.41;5019718;28;20188;-72
2023/02/12 09:34:26;;;;;;;49.05;16.23;;;;;;;7.08;100.00;103151.47;5001506;28;20087;-72
2023/02/12 09:36:52;;;;;;;46.17;16.30;;;;;;;7.09;100.00;103156.66;5018906;28;20038;-74
2023/02/12 09:39:17;;;;;;;42.73;15.90;;;;;;;7.10;100.00;103153.09;5020661;28;20383;-74
2023/02/12 09:41:56;;;;;;;56.03;18.80;;;;;;;7.23;100.00;103152.44;5017445;28;20042;-74
2023/02/12 09:44:46;;;;;;;48.92;16.40;;;;;;;7.20;100.00;103158.78;5020193;28;20196;-75
2023/02/12 09:47:32;;;;;;;51.25;17.23;;;;;;;7.31;100.00;103163.53;4984527;28;20066;-73
2023/02/12 09:50:25;;;;;;;48.63;15.68;;;;;;;7.49;100.00;103169.63;5015502;28;20034;-73
2023/02/12 09:52:53;;;;;;;52.03;18.08;;;;;;;7.55;100.00;103154.22;5017905;28;20570;-72
2023/02/12 09:55:20;;;;;;;49.67;15.93;;;;;;;7.64;100.00;103163.50;5002192;28;20284;-71
2023/02/12 09:57:46;;;;;;;44.28;16.20;;;;;;;7.65;100.00;103159.03;5018297;28;20026;-72
2023/02/12 10:00:20;;;;;;;48.67;16.17;;;;;;;7.61;100.00;103153.03;5019800;28;20462;-72
2023/02/12 10:02:50;;;;;;;38.30;14.88;;;;;;;7.69;100.00;103156.13;5016729;28;20041;-73
2023/02/12 10:05:31;;;;;;;40.28;14.38;;;;;;;7.81;100.00;103149.25;5020409;28;20048;-71
2023/02/12 10:08:19;;;;;;;38.08;15.35;;;;;;;7.99;100.00;103153.53;5018702;28;20043;-72
2023/02/12 10:11:00;;;;;;;40.13;15.80;;;;;;;7.96;100.00;103144.88;4985811;28;20176;-72
2023/02/12 10:14:02;;;;;;;45.42;16.45;;;;;;;8.04;100.00;103139.97;5001275;28;20064;-73
2023/02/12 10:16:50;;;;;;;38.28;15.18;;;;;;;8.24;100.00;103138.81;5016784;28;20052;-74
2023/02/12 10:19:44;;;;;;;36.95;15.20;;;;;;;8.40;100.00;103128.19;4984246;28;20491;-72
2023/02/12 10:22:25;;;;;;;36.55;14.10;;;;;;;8.48;100.00;103127.75;4983958;28;20045;-72
2023/02/12 10:25:07;;;;;;;36.83;13.88;;;;;;;8.55;100.00;103131.75;5017612;28;20029;-73
2023/02/12 10:27:45;;;;;;;42.15;16.10;;;;;;;8.33;100.00;103117.00;5014393;28;20186;-73
2023/02/12 10:30:23;;;;;;;29.77;13.90;;;;;;;8.18;100.00;103115.25;5013763;28;20387;-73
2023/02/12 10:32:53;;;;;;;36.28;13.57;;;;;;;8.18;100.00;103115.25;4999476;28;20038;-72
2023/02/12 10:35:21;;;;;;;34.58;14.13;;;;;;;8.34;100.00;103126.72;5003046;28;20410;-72
2023/02/12 10:38:21;;;;;;;31.30;12.27;;;;;;;8.23;100.00;103116.69;5001596;28;20021;-73
2023/02/12 10:40:46;;;;;;;35.83;13.20;;;;;;;8.17;100.00;103108.19;4999263;28;20042;-74
2023/02/12 10:43:12;;;;;;;32.83;11.65;;;;;;;8.28;100.00;103127.06;5019113;28;20037;-75
2023/02/12 10:45:40;;;;;;;30.90;12.35;;;;;;;8.33;100.00;103121.47;5000582;28;20036;-73
2023/02/12 10:48:21;;;;;;;29.98;12.50;;;;;;;8.32;100.00;103123.28;5020869;28;20397;-73
2023/02/12 10:51:04;;;;;;;27.13;11.68;;;;;;;8.36;100.00;103127.47;5015734;28;20510;-72
2023/02/12 10:53:38;;;;;;;24.88;9.90;;;;;;;8.35;100.00;103123.09;5017852;28;20092;-74
2023/02/12 10:56:13;;;;;;;27.83;10.52;;;;;;;8.32;100.00;103112.63;5015057;28;20045;-73
2023/02/12 10:58:40;;;;;;;30.48;11.10;;;;;;;8.23;100.00;103108.69;5000042;28;20037;-72
2023/02/12 11:01:16;;;;;;;29.83;10.32;;;;;;;8.23;100.00;103122.00;5018907;28;20112;-72
2023/02/12 11:03:41;;;;;;;26.35;9.90;;;;;;;8.31;100.00;103124.25;5018542;28;20033;-75
2023/02/12 11:06:13;;;;;;;22.70;10.27;;;;;;;8.32;100.00;103123.28;5019117;28;20501;-75
2023/02/12 11:08:40;;;;;;;25.70;10.80;;;;;;;8.31;100.00;103121.56;4998765;28;20042;-72
2023/02/12 11:11:07;;;;;;;;;;;;;;;8.30;100.00;103114.53;5001638;28;20037;-72
2023/02/12 11:13:34;;;;;;;21.88;9.13;;;;;;;8.34;100.00;103120.53;4999786;28;19913;-72
2023/02/12 11:16:00;;;;;;;;;;;;;;;8.44;100.00;103122.59;5019357;28;20033;-73
2023/02/12 11:18:33;;;;;;;27.92;9.95;;;;;;;8.40;100.00;103109.53;5018570;28;20015;-73
2023/02/12 11:21:03;;;;;;;23.83;10.38;;;;;;;8.50;100.00;103116.06;5014007;28;20041;-72
2023/02/12 11:23:40;;;;;;;27.20;8.77;;;;;;;8.55;100.00;103110.47;5018300;28;20517;-72
2023/02/12 11:26:21;;;;;;;17.92;8.25;;;;;;;8.64;100.00;103110.75;4999743;28;20041;-72
2023/02/12 11:29:02;;;;;;;18.45;8.65;;;;;;;9.04;100.00;103104.81;5015449;28;20519;-72
2023/02/12 11:31:30;;;;;;;19.02;8.70;;;;;;;9.38;100.00;103097.34;4999370;28;20098;-72
2023/02/12 11:34:11;;;;;;;15.35;7.28;;;;;;;10.35;100.00;103089.25;5014602;28;20136;-73
2023/02/12 11:36:42;;;;;;;15.85;6.80;;;;;;;10.30;100.00;103001.47;5002676;28;20044;-73